Data for 11/21/2015

Time Sea-Level Adjusted Pressure Absolute Pressure Temperature Relative Humidity Dew Point   
(mb) (inHg) (mb) (inHg) (C) (F) (%) (C) (F)
00:05 1029 30.39 858 25.34 -9.9 14.2 63 -15.7 3.8
00:10 1029 30.39 858 25.34 -10.1 13.8 65 -15.6 3.9
00:15 1029 30.39 858 25.34 -10.3 13.4 63 -16 3.1
00:20 1029 30.39 858 25.34 -10.4 13.3 63 -16.1 3.1
00:25 1029 30.39 858 25.34 -10.4 13.2 63 -16.2 2.9
00:30 1029 30.39 858 25.34 -10.3 13.5 63 -16.1 3.1
00:35 1029 30.39 858 25.34 -10.4 13.4 65 -15.7 3.7
00:40 1029 30.39 858 25.34 -10.4 13.3 63 -16.2 2.8
00:45 1029 30.39 858 25.34 -10.5 13.2 65 -15.8 3.5
00:50 1029 30.39 858 25.34 -10.9 12.4 66 -16 3.2
00:55 1029 30.39 858 25.34 -11.2 11.9 67 -16.1 2.9
01:00 1029 30.39 858 25.34 -11.2 11.8 66 -16.5 2.3
01:05 1029 30.39 858 25.34 -11.1 12.1 65 -16.4 2.4
01:10 1029 30.39 858 25.34 -11 12.1 64 -16.5 2.3
01:15 1029 30.39 858 25.34 -10.9 12.3 64 -16.5 2.4
01:20 1029 30.39 858 25.34 -10.9 12.5 64 -16.4 2.4
01:25 1029 30.39 858 25.34 -10.8 12.5 64 -16.4 2.5
01:30 1029 30.39 858 25.34 -10.8 12.5 63 -16.6 2.2
01:35 1029 30.39 858 25.34 -10.6 12.8 63 -16.5 2.4
01:40 1029 30.39 858 25.34 -10.5 13.1 62 -16.5 2.3
01:45 1029 30.39 858 25.34 -10.6 13 62 -16.5 2.2
01:50 1029 30.39 858 25.34 -10.7 12.8 61 -16.7 1.9
01:55 1029 30.39 858 25.34 -10.5 13.1 61 -16.6 2.1
02:00 1029 30.39 858 25.34 -10.7 12.7 63 -16.5 2.3
02:05 1029 30.39 858 25.34 -10.9 12.3 65 -16.2 2.8
02:10 1029 30.39 858 25.34 -11.1 12 67 -16.1 2.9
02:15 1029 30.39 858 25.34 -11.2 11.8 67 -16.2 2.8
02:20 1029 30.39 858 25.34 -11.1 11.9 64 -16.7 1.9
02:25 1029 30.39 858 25.34 -11 12.2 63 -16.7 1.9
02:30 1029 30.39 858 25.34 -10.9 12.3 64 -16.4 2.5
02:35 1029 30.39 858 25.34 -10.9 12.4 64 -16.4 2.5
02:40 1029 30.39 858 25.34 -11 12.2 65 -16.3 2.6
02:45 1028 30.36 858 25.34 -11.1 12 64 -16.6 2.1
02:50 1029 30.39 858 25.34 -11 12.2 65 -16.3 2.6
02:55 1028 30.36 858 25.34 -11 12.3 65 -16.3 2.7
03:00 1028 30.36 858 25.34 -11.4 11.4 67 -16.5 2.3
03:05 1028 30.36 858 25.34 -11.8 10.7 66 -16.9 1.6
03:10 1028 30.36 858 25.34 -11.7 11 66 -16.8 1.8
03:15 1028 30.36 858 25.34 -11.5 11.3 66 -16.6 2
03:20 1028 30.36 858 25.34 -11.5 11.3 66 -16.6 2
03:25 1028 30.36 858 25.34 -11.8 10.8 68 -16.5 2.3
03:30 1028 30.36 858 25.34 -12 10.4 69 -16.6 2.2
03:35 1028 30.36 858 25.34 -12 10.4 69 -16.5 2.2
03:40 1028 30.36 858 25.34 -11.8 10.9 69 -16.4 2.4
03:45 1028 30.36 858 25.34 -11.1 12.1 64 -16.7 2
03:50 1028 30.36 857 25.31 -11 12.1 65 -16.4 2.6
03:55 1028 30.36 857 25.31 -11.6 11.2 69 -16.2 2.8
04:00 1028 30.36 857 25.31 -11.3 11.7 68 -16 3.2
04:05 1028 30.36 857 25.31 -11.1 12 67 -16.1 3
04:10 1028 30.36 857 25.31 -11 12.1 68 -15.9 3.3
04:15 1028 30.36 857 25.31 -11 12.2 65 -16.3 2.7
04:20 1028 30.36 857 25.31 -10.5 13.2 64 -16 3.2
04:25 1028 30.36 857 25.31 -10.8 12.5 65 -16.1 2.9
04:30 1028 30.36 857 25.31 -11.4 11.5 68 -16.1 3
04:35 1028 30.36 857 25.31 -11.8 10.8 70 -16.3 2.7
04:40 1028 30.36 857 25.31 -12 10.3 71 -16.3 2.7
04:45 1028 30.36 857 25.31 -12.3 9.8 72 -16.4 2.6
04:50 1028 30.36 857 25.31 -12.6 9.4 73 -16.4 2.5
04:55 1028 30.36 857 25.31 -12.4 9.7 72 -16.5 2.3
05:00 1028 30.36 857 25.31 -11.9 10.7 70 -16.3 2.6
05:05 1028 30.36 857 25.31 -11.8 10.9 70 -16.2 2.8
05:10 1028 30.36 857 25.31 -11.7 10.9 67 -16.6 2.1
05:15 1027 30.33 857 25.31 -11.8 10.7 68 -16.6 2.2
05:20 1027 30.33 857 25.31 -12.2 10 68 -16.9 1.6
05:25 1027 30.33 857 25.31 -12.2 10 69 -16.7 1.9
05:30 1027 30.33 856 25.28 -12.2 10.1 70 -16.5 2.2
05:35 1027 30.33 856 25.28 -12 10.4 68 -16.7 2
05:40 1027 30.33 856 25.28 -12.1 10.3 70 -16.6 2.2
05:45 1027 30.33 856 25.28 -12.3 10 69 -16.9 1.6
05:50 1027 30.33 856 25.28 -12.5 9.5 70 -16.9 1.5
05:55 1027 30.33 856 25.28 -12.5 9.4 69 -17.1 1.2
06:00 1027 30.33 856 25.28 -12.3 9.8 68 -17 1.3
06:05 1027 30.33 856 25.28 -12.1 10.2 67 -17.1 1.3
06:10 1027 30.33 856 25.28 -12.3 10 68 -16.9 1.5
06:15 1027 30.33 856 25.28 -12.3 9.8 69 -16.9 1.5
06:20 1027 30.33 856 25.28 -12.3 9.8 69 -16.9 1.6
06:25 1027 30.33 856 25.28 -12.3 9.8 69 -17 1.5
06:30 1027 30.33 856 25.28 -12.3 9.8 70 -16.8 1.7
06:35 1027 30.33 856 25.28 -11.9 10.5 69 -16.6 2.1
06:40 1027 30.33 856 25.28 -11.6 11.1 70 -16.1 3
06:45 1027 30.33 856 25.28 -11.3 11.7 68 -16.2 2.9
06:50 1027 30.33 856 25.28 -11.3 11.6 71 -15.5 4.1
06:55 1027 30.33 856 25.28 -11.3 11.7 70 -15.8 3.5
07:00 1027 30.33 856 25.28 -11.5 11.4 72 -15.6 3.9
07:05 1027 30.33 856 25.28 -11.8 10.7 72 -15.9 3.3
07:10 1027 30.33 856 25.28 -12.3 9.8 73 -16.2 2.8
07:15 1027 30.33 856 25.28 -12.4 9.7 72 -16.4 2.4
07:20 1027 30.33 856 25.28 -12 10.3 69 -16.6 2.2
07:25 1027 30.33 856 25.28 -11.9 10.5 68 -16.7 2
07:30 1027 30.33 856 25.28 -12.4 9.7 70 -16.7 1.9
07:35 1027 30.33 856 25.28 -12.5 9.5 71 -16.8 1.8
07:40 1027 30.33 856 25.28 -12.4 9.7 67 -17.3 0.9
07:45 1027 30.33 856 25.28 -11.3 11.7 65 -16.6 2.1
07:50 1027 30.33 856 25.28 -10.6 13 62 -16.6 2.2
07:55 1027 30.33 856 25.28 -10.3 13.5 60 -16.6 2.2
08:00 1027 30.33 856 25.28 -10.3 13.4 61 -16.6 2.2
08:05 1027 30.33 856 25.28 -11 12.3 64 -16.5 2.3
08:10 1027 30.33 856 25.28 -11.5 11.3 66 -16.7 1.9
08:15 1027 30.33 856 25.28 -12 10.4 67 -16.9 1.5
08:20 1026 30.3 856 25.28 -12.3 9.8 69 -16.9 1.6
08:25 1026 30.3 856 25.28 -12.3 9.9 69 -16.9 1.5
08:30 1026 30.3 856 25.28 -12.1 10.3 68 -16.9 1.6
08:35 1026 30.3 855 25.25 -11.9 10.5 67 -16.9 1.5
08:40 1026 30.3 855 25.25 -11.5 11.3 65 -16.8 1.8
08:45 1026 30.3 855 25.25 -11.3 11.6 64 -16.9 1.6
08:50 1026 30.3 855 25.25 -10.7 12.7 61 -16.8 1.8
08:55 1026 30.3 855 25.25 -10.5 13 61 -16.7 2
09:00 1026 30.3 855 25.25 -10.8 12.6 64 -16.3 2.7
09:05 1026 30.3 855 25.25 -11.4 11.5 65 -16.7 2
09:10 1026 30.3 855 25.25 -11.3 11.6 66 -16.5 2.2
09:15 1026 30.3 856 25.28 -11.1 12 64 -16.5 2.2
09:20 1026 30.3 856 25.28 -11 12.3 67 -16 3.2
09:25 1026 30.3 856 25.28 -11.4 11.6 68 -16.1 3
09:30 1026 30.3 856 25.28 -11 12.3 67 -15.9 3.4
09:35 1026 30.3 856 25.28 -10.8 12.6 66 -16.1 3.1
09:40 1026 30.3 855 25.25 -10.4 13.2 69 -15.1 4.8
09:45 1026 30.3 855 25.25 -10.2 13.6 69 -15 5
09:50 1026 30.3 855 25.25 -10.1 13.7 68 -15 4.9
09:55 1026 30.3 855 25.25 -9.8 14.4 67 -14.9 5.2
10:00 1026 30.3 855 25.25 -9.6 14.8 66 -14.8 5.3
10:05 1026 30.3 855 25.25 -9.3 15.3 65 -14.7 5.5
10:10 1026 30.3 855 25.25 -9.3 15.2 63 -15.1 4.9
10:15 1026 30.3 855 25.25 -9.3 15.2 63 -15.1 4.8
10:20 1026 30.3 855 25.25 -8.9 16 63 -14.8 5.3
10:25 1026 30.3 855 25.25 -8.3 17.1 57 -15.4 4.3
10:30 1026 30.3 855 25.25 -7.8 17.9 57 -14.9 5.1
10:35 1025 30.27 855 25.25 -7.8 18 59 -14.5 5.9
10:40 1025 30.27 855 25.25 -8 17.5 61 -14.4 6.1
10:45 1025 30.27 855 25.25 -8.2 17.2 62 -14.3 6.3
10:50 1025 30.27 855 25.25 -8 17.7 61 -14.2 6.5
10:55 1025 30.27 854 25.22 -7.6 18.3 61 -13.9 7
11:00 1025 30.27 854 25.22 -7.3 18.8 59 -14 6.8
11:05 1025 30.27 855 25.25 -7.2 19.1 58 -14 6.8
11:10 1025 30.27 855 25.25 -6.5 20.3 53 -14.6 5.8
11:15 1025 30.27 855 25.25 -6.2 20.8 54 -14.1 6.6
11:20 1025 30.27 855 25.25 -5.7 21.8 52 -14 6.8
11:25 1025 30.27 855 25.25 -5.4 22.3 50 -14.3 6.3
11:30 1026 30.3 855 25.25 -5.4 22.4 47 -14.9 5.1
11:35 1026 30.3 855 25.25 -5.6 21.9 49 -14.6 5.7
11:40 1026 30.3 855 25.25 -5.8 21.5 51 -14.4 6.1
11:45 1026 30.3 855 25.25 -5.7 21.8 50 -14.5 5.8
11:50 1026 30.3 855 25.25 -5 23 46 -14.9 5.2
11:55 1026 30.3 855 25.25 -4.8 23.4 47 -14.5 5.9
12:00 1026 30.3 855 25.25 -4.1 24.6 46 -14.2 6.5
12:05 1026 30.3 855 25.25 -4.3 24.3 45 -14.5 5.9
12:10 1026 30.3 855 25.25 -4.1 24.7 43 -14.8 5.3
12:15 1025 30.27 855 25.25 -4.3 24.3 45 -14.6 5.6
12:20 1025 30.27 855 25.25 -3.9 25 43 -14.6 5.7
12:25 1025 30.27 855 25.25 -3.8 25.1 43 -14.8 5.4
12:30 1025 30.27 855 25.25 -3.7 25.3 41 -15.1 4.9
12:35 1025 30.27 855 25.25 -3.1 26.4 38 -15.6 3.9
12:40 1025 30.27 854 25.22 -3.2 26.3 43 -14.1 6.6
12:45 1025 30.27 854 25.22 -3.2 26.2 42 -14.3 6.3
12:50 1025 30.27 854 25.22 -3 26.5 41 -14.6 5.7
12:55 1025 30.27 854 25.22 -2.5 27.4 35 -15.9 3.4
13:00 1025 30.27 854 25.22 -2.7 27.2 36 -15.9 3.4
13:05 1025 30.27 854 25.22 -2.8 26.9 40 -14.7 5.5
13:10 1025 30.27 854 25.22 -2.6 27.3 38 -15.1 4.9
13:15 1025 30.27 854 25.22 -2.8 27 37 -15.7 3.8
13:20 1025 30.27 854 25.22 -2 28.4 38 -14.6 5.8
13:25 1024 30.24 854 25.22 -1.6 29.2 33 -15.7 3.7
13:30 1024 30.24 854 25.22 -1.4 29.4 34 -15.2 4.6
13:35 1024 30.24 854 25.22 -1.8 28.8 38 -14.2 6.4
13:40 1024 30.24 853 25.19 -1.7 28.9 40 -13.7 7.3
13:45 1024 30.24 853 25.19 -1.7 29 42 -13 8.5
13:50 1024 30.24 853 25.19 -1.3 29.7 39 -13.4 7.9
13:55 1024 30.24 853 25.19 -1.6 29.1 37 -14.6 5.7
14:00 1024 30.24 853 25.19 -1.6 29.1 36 -14.9 5.3
14:05 1024 30.24 853 25.19 -1.5 29.3 34 -15.3 4.4
14:10 1024 30.24 853 25.19 -1.7 28.9 37 -14.7 5.6
14:15 1024 30.24 853 25.19 -1.1 30 33 -15.4 4.3
14:20 1024 30.24 853 25.19 -1.2 29.9 34 -15.2 4.6
14:25 1023 30.21 853 25.19 -0.9 30.4 34 -14.8 5.4
14:30 1023 30.21 853 25.19 -0.9 30.5 33 -15.1 4.7
14:35 1023 30.21 853 25.19 -0.3 31.5 32 -15 4.9
14:40 1023 30.21 853 25.19 -0.2 31.6 32 -15.1 4.8
14:45 1023 30.21 852 25.16 -0.4 31.3 33 -14.7 5.6
14:50 1023 30.21 852 25.16 -0.5 31.1 34 -14.4 6
14:55 1023 30.21 852 25.16 -0.5 31.1 34 -14.5 5.9
15:00 1023 30.21 852 25.16 -0.6 30.9 33 -14.9 5.3
15:05 1023 30.21 852 25.16 -0.5 31.2 32 -15.3 4.4
15:10 1023 30.21 852 25.16 -0.5 31 32 -15.3 4.4
15:15 1023 30.21 852 25.16 -0.5 31 34 -14.4 6.1
15:20 1023 30.21 852 25.16 -0.2 31.6 31 -15.4 4.3
15:25 1023 30.21 852 25.16 -0.2 31.6 34 -14.5 5.9
15:30 1023 30.21 852 25.16 -0 31.9 31 -15.2 4.7
15:35 1023 30.21 852 25.16 0.2 32.4 31 -15.1 4.8
15:40 1023 30.21 852 25.16 0 32 29 -15.8 3.5
15:45 1023 30.21 852 25.16 0.1 32.2 28 -16.5 2.4
15:50 1023 30.21 852 25.16 0.6 33 25 -17.5 0.5
15:55 1023 30.21 852 25.16 0.3 32.6 27 -16.7 1.9
16:00 1023 30.21 852 25.16 -0.1 31.8 27 -17 1.4
16:05 1023 30.21 852 25.16 -0.2 31.6 29 -16.1 3
16:10 1023 30.21 852 25.16 -0.1 31.7 30 -15.8 3.5
16:15 1023 30.21 852 25.16 0.3 32.5 30 -15.2 4.6
16:20 1022 30.18 852 25.16 0.1 32.2 32 -14.9 5.2
16:25 1022 30.18 852 25.16 0.4 32.7 32 -14.4 6.1
16:30 1022 30.18 852 25.16 0.3 32.6 33 -14.1 6.5
16:35 1022 30.18 852 25.16 0.3 32.6 33 -14.2 6.5
16:40 1022 30.18 852 25.16 -0 31.9 33 -14.3 6.2
16:45 1022 30.18 852 25.16 -0.1 31.9 33 -14.5 6
16:50 1022 30.18 852 25.16 0.2 32.4 33 -14.3 6.3
16:55 1022 30.18 852 25.16 -0 31.9 35 -13.8 7.2
17:00 1022 30.18 851 25.13 -0.1 31.9 36 -13.5 7.7
17:05 1022 30.18 851 25.13 -0.1 31.8 34 -14.2 6.5
17:10 1022 30.18 851 25.13 -0.4 31.3 33 -14.8 5.3
17:15 1022 30.18 851 25.13 -0.3 31.4 33 -14.7 5.6
17:20 1022 30.18 851 25.13 -0.3 31.4 34 -14.4 6.2
17:25 1022 30.18 851 25.13 -0.5 31.2 37 -13.4 7.8
17:30 1022 30.18 851 25.13 -0.6 30.9 36 -14 6.8
17:35 1022 30.18 851 25.13 -0.8 30.5 36 -14.2 6.5
17:40 1022 30.18 851 25.13 -0.9 30.3 39 -13.3 8.1
17:45 1022 30.18 851 25.13 -1.4 29.6 41 -13.1 8.4
17:50 1022 30.18 851 25.13 -1.5 29.4 43 -12.5 9.5
17:55 1022 30.18 851 25.13 -1.8 28.8 43 -12.8 9
18:00 1022 30.18 851 25.13 -1.8 28.8 45 -12.3 9.9
18:05 1022 30.18 851 25.13 -1.8 28.7 48 -11.3 11.6
18:10 1022 30.18 851 25.13 -1.9 28.5 50 -11 12.3
18:15 1022 30.18 851 25.13 -1.9 28.5 50 -11.1 11.9
18:20 1022 30.18 851 25.13 -1.9 28.5 51 -10.9 12.5
18:25 1022 30.18 851 25.13 -2 28.5 50 -11 12.2
18:30 1022 30.18 851 25.13 -1.8 28.7 49 -11.1 12
18:35 1022 30.18 851 25.13 -1.5 29.3 46 -11.7 11
18:40 1022 30.18 851 25.13 -1.1 30 47 -11 12.3
18:45 1022 30.18 851 25.13 -1.6 29.1 49 -11 12.3
18:50 1022 30.18 851 25.13 -2 28.5 51 -10.8 12.6
18:55 1022 30.18 851 25.13 -2 28.5 50 -11.1 12.1
19:00 1022 30.18 851 25.13 -2.1 28.3 52 -10.5 13
19:05 1022 30.18 851 25.13 -2.6 27.4 50 -11.6 11
19:10 1022 30.18 851 25.13 -2.3 27.8 51 -11.1 12
19:15 1022 30.18 851 25.13 -2.2 28 51 -11.2 11.9
19:20 1022 30.18 851 25.13 -2.4 27.7 48 -11.9 10.6
19:25 1022 30.18 851 25.13 -2.3 27.9 49 -11.6 11.1
19:30 1022 30.18 852 25.16 -2.5 27.4 51 -11.4 11.5
19:35 1022 30.18 851 25.13 -2.8 27.1 51 -11.5 11.2
19:40 1022 30.18 851 25.13 -2.9 26.8 51 -11.8 10.8
19:45 1022 30.18 852 25.16 -2.6 27.3 50 -11.6 11.1
19:50 1022 30.18 852 25.16 -2.5 27.5 50 -11.7 11
19:55 1022 30.18 851 25.13 -2.5 27.5 49 -11.8 10.7
20:00 1022 30.18 851 25.13 -2.4 27.6 48 -12.1 10.2
20:05 1022 30.18 852 25.16 -2.2 28 44 -12.9 8.7
20:10 1022 30.18 852 25.16 -1.9 28.6 46 -12.2 10.1
20:15 1022 30.18 852 25.16 -2.4 27.7 46 -12.4 9.6
20:20 1022 30.18 852 25.16 -2.4 27.7 46 -12.6 9.4
20:25 1022 30.18 851 25.13 -2.3 27.9 43 -13.2 8.2
20:30 1022 30.18 851 25.13 -1.9 28.6 39 -14 6.8
20:35 1022 30.18 851 25.13 -1.4 29.5 36 -14.7 5.5
20:40 1022 30.18 851 25.13 -1 30.3 35 -14.8 5.4
20:45 1022 30.18 851 25.13 -1 30.2 38 -13.7 7.3
20:50 1022 30.18 851 25.13 -1.3 29.7 36 -14.4 6
20:55 1022 30.18 852 25.16 -1 30.3 35 -14.6 5.7
21:00 1022 30.18 852 25.16 -0.8 30.6 37 -13.7 7.3
21:05 1022 30.18 852 25.16 -1 30.2 36 -14.1 6.5
21:10 1022 30.18 852 25.16 -0.7 30.8 33 -14.9 5.1
21:15 1022 30.18 851 25.13 -0.4 31.2 33 -14.8 5.3
21:20 1022 30.18 852 25.16 0.1 32.2 31 -15.2 4.7
21:25 1022 30.18 852 25.16 0.2 32.4 30 -15.3 4.5
21:30 1022 30.18 852 25.16 0.2 32.3 30 -15.5 4.1
21:35 1022 30.18 852 25.16 0.1 32.3 32 -14.6 5.7
21:40 1022 30.18 852 25.16 -0 31.9 31 -15.3 4.4
21:45 1022 30.18 852 25.16 0.1 32.2 30 -15.6 3.9
21:50 1022 30.18 852 25.16 0.2 32.4 29 -15.7 3.7
21:55 1022 30.18 852 25.16 0.3 32.6 29 -15.8 3.5
22:00 1022 30.18 852 25.16 0.5 33 30 -15.3 4.4
22:05 1022 30.18 852 25.16 0.5 32.9 32 -14.4 6.1
22:10 1022 30.18 852 25.16 0.1 32.2 33 -14.5 5.9
22:15 1022 30.18 852 25.16 0 32.1 36 -13.2 8.2
22:20 1022 30.18 852 25.16 -0.9 30.4 41 -12.5 9.4
22:25 1022 30.18 852 25.16 -1.7 28.9 45 -12.2 10.1
22:30 1022 30.18 852 25.16 -2.3 27.9 47 -12.1 10.3
22:35 1023 30.21 852 25.16 -2.5 27.6 48 -12.1 10.2
22:40 1022 30.18 852 25.16 -1.9 28.5 46 -12.1 10.2
22:45 1022 30.18 852 25.16 -1.6 29.2 44 -12.2 10
22:50 1023 30.21 852 25.16 -1.5 29.2 47 -11.4 11.5
22:55 1022 30.18 852 25.16 -1.8 28.8 45 -12.1 10.2
23:00 1022 30.18 852 25.16 -1.7 28.9 47 -11.5 11.3
23:05 1022 30.18 852 25.16 -1.9 28.5 47 -11.9 10.6
23:10 1022 30.18 852 25.16 -2 28.4 46 -12 10.4
23:15 1022 30.18 852 25.16 -1.6 29.2 46 -11.7 10.9
23:20 1022 30.18 852 25.16 -1.4 29.4 46 -11.5 11.3
23:25 1022 30.18 852 25.16 -1.9 28.7 52 -10.4 13.2
23:30 1022 30.18 852 25.16 -2.2 28 51 -11.1 12
23:35 1022 30.18 852 25.16 -2.2 28.1 48 -11.8 10.7
23:40 1022 30.18 852 25.16 -1.9 28.6 46 -12.1 10.2
23:45 1022 30.18 852 25.16 -1.8 28.7 48 -11.5 11.3
23:50 1022 30.18 852 25.16 -1.7 29 48 -11.2 11.8
23:55 1023 30.21 852 25.16 -1.9 28.6 51 -10.7 12.7
24:00 1023 30.21 852 25.16 -2.1 28.1 52 -10.8 12.6